KAGS/AGS METAR and TAF weather

Enter ICAO airport designator
Station Type Date Time Source
KAGS METAR 2022/12/04 11:15 UTC NOAA

KAGS 041115Z 33005KT 10SM OVC010 13/12 A3022 RMK AO2 CIG 006V012 T01280117


Station Type Date Time Source
KAGS Decoded METAR 2022/12/04 11:15 UTC NOAA

AUGUSTA BUSH FIELD, GA, United States (KAGS) 33-22N 081-58W 44M
Dec 04, 2022 - 06:15 AM EST / 2022.12.04 1115 UTC
Wind: from the NNW (330 degrees) at 6 MPH (5 KT):0
Visibility: 10 mile(s):0
Sky conditions: overcast
Temperature: 55.0 F (12.8 C)
Dew Point: 53.1 F (11.7 C)
Relative Humidity: 93%
Pressure (altimeter): 30.22 in. Hg (1023 hPa)
ob: KAGS 041115Z 33005KT 10SM OVC010 13/12 A3022 RMK AO2 CIG 006V012 T01280117
cycle: 11

Station Type Date Time Source
KAGS TAF 2022/12/04 12:33 UTC NOAA

TAF KAGS 041131Z 0412/0512 33004KT 6SM BR BKN009
FM041300 01004KT P6SM SCT010
FM041500 02004KT P6SM SCT050 SCT250
FM050200 VRB02KT P6SM BKN050

Example: see airport list